createdAt,value
2023-03-12T00:00:04.011Z,17.38
2023-03-12T00:02:42.616Z,17.80
2023-03-12T00:05:13.952Z,18.67
2023-03-12T00:07:45.066Z,19.38
2023-03-12T00:10:16.090Z,18.88
2023-03-12T00:12:46.991Z,17.30
2023-03-12T00:15:17.738Z,17.30
2023-03-12T00:17:48.721Z,17.88
2023-03-12T00:20:20.094Z,17.20
2023-03-12T00:22:51.541Z,16.63
2023-03-12T00:25:23.984Z,16.10
2023-03-12T00:27:55.682Z,23.65
2023-03-12T00:30:29.854Z,22.60
2023-03-12T00:33:00.977Z,19.50
2023-03-12T00:35:32.055Z,18.42
2023-03-12T00:38:03.109Z,17.33
2023-03-12T00:40:34.210Z,16.77
2023-03-12T00:45:49.108Z,17.35
2023-03-12T00:48:20.357Z,18.17
2023-03-12T00:50:52.500Z,18.08
2023-03-12T00:53:23.800Z,18.42
2023-03-12T00:55:57.857Z,18.00
2023-03-12T00:58:29.202Z,19.35
2023-03-12T01:01:00.565Z,19.80
2023-03-12T01:03:31.946Z,21.83
2023-03-12T01:06:03.273Z,21.38
2023-03-12T01:08:34.693Z,21.52
2023-03-12T01:11:06.418Z,20.52
2023-03-12T01:13:37.563Z,22.75
2023-03-12T01:16:11.714Z,18.48
2023-03-12T01:18:45.844Z,19.00
2023-03-12T01:21:16.873Z,19.52
2023-03-12T01:23:48.228Z,19.67
2023-03-12T01:26:19.608Z,19.33
2023-03-12T01:28:51.065Z,17.70
2023-03-12T01:31:22.367Z,18.20
2023-03-12T01:33:54.921Z,18.63
2023-03-12T01:36:28.982Z,18.17
2023-03-12T01:39:04.976Z,17.98
2023-03-12T01:41:36.798Z,19.20
2023-03-12T01:44:09.337Z,17.90
2023-03-12T01:46:47.151Z,18.52
2023-03-12T01:49:36.395Z,19.48
2023-03-12T01:52:15.787Z,19.27
2023-03-12T01:55:02.160Z,19.52
2023-03-12T01:57:45.950Z,18.85
2023-03-12T02:00:28.565Z,19.75
2023-03-12T02:03:09.075Z,18.65
2023-03-12T02:05:50.069Z,17.88
2023-03-12T02:08:21.655Z,23.27
2023-03-12T02:10:53.428Z,19.83
2023-03-12T02:13:26.675Z,19.50
2023-03-12T02:16:18.348Z,19.48
2023-03-12T02:18:54.625Z,18.85
2023-03-12T02:21:31.291Z,20.48
2023-03-12T02:24:31.416Z,20.08
2023-03-12T02:27:07.986Z,18.95
2023-03-12T02:29:44.651Z,19.50
2023-03-12T02:32:40.534Z,19.73
2023-03-12T02:35:17.671Z,20.25
2023-03-12T02:37:53.171Z,19.90
2023-03-12T02:40:50.698Z,20.88
2023-03-12T02:43:23.970Z,22.98
2023-03-12T02:48:40.436Z,24.17
2023-03-12T02:51:15.060Z,24.10
2023-03-12T02:53:46.767Z,23.85
2023-03-12T02:56:18.061Z,23.58
2023-03-12T02:58:49.243Z,24.80
2023-03-12T03:01:27.706Z,22.77
2023-03-12T03:03:59.975Z,21.05
2023-03-12T03:06:34.205Z,22.00
2023-03-12T03:09:05.767Z,21.73
2023-03-12T03:11:37.313Z,20.60
2023-03-12T03:14:11.911Z,20.17
2023-03-12T03:16:52.917Z,19.55
2023-03-12T03:19:26.744Z,18.40
2023-03-12T03:21:57.848Z,17.73
2023-03-12T03:24:31.739Z,17.95
2023-03-12T03:27:08.854Z,17.83
2023-03-12T03:29:40.620Z,17.95
2023-03-12T03:32:12.587Z,16.70
2023-03-12T03:34:44.879Z,16.10
2023-03-12T03:37:17.409Z,17.92
2023-03-12T03:39:50.501Z,15.52
2023-03-12T03:42:23.275Z,15.55
2023-03-12T03:44:54.548Z,15.43
2023-03-12T03:47:26.061Z,14.57
2023-03-12T03:49:57.341Z,15.05
2023-03-12T03:52:29.511Z,13.55
2023-03-12T03:55:02.532Z,14.15
2023-03-12T04:00:19.907Z,14.25
2023-03-12T04:02:56.611Z,13.77
2023-03-12T04:05:29.515Z,14.45
2023-03-12T04:08:04.820Z,14.50
2023-03-12T04:10:37.361Z,15.18
2023-03-12T04:13:08.691Z,17.85
2023-03-12T04:15:43.564Z,13.90
2023-03-12T04:18:15.536Z,12.07
2023-03-12T04:20:48.860Z,14.75
2023-03-12T04:23:21.142Z,14.70
2023-03-12T04:25:52.874Z,19.35
2023-03-12T04:28:24.585Z,11.32
2023-03-12T04:31:03.726Z,12.70
2023-03-12T04:33:46.926Z,13.77
2023-03-12T04:36:22.877Z,13.32
2023-03-12T04:38:57.904Z,14.18
2023-03-12T04:41:33.771Z,12.95
2023-03-12T04:44:12.663Z,11.00
2023-03-12T04:46:45.436Z,13.05
2023-03-12T04:49:20.260Z,13.35
2023-03-12T04:52:13.114Z,12.48
2023-03-12T04:54:46.777Z,11.73
2023-03-12T04:57:19.444Z,13.57
2023-03-12T04:59:51.464Z,13.93
2023-03-12T05:02:24.163Z,12.85
2023-03-12T05:05:06.543Z,13.38
2023-03-12T05:07:38.573Z,12.48
2023-03-12T05:10:11.113Z,12.00
2023-03-12T05:12:42.859Z,11.13
2023-03-12T05:15:14.641Z,9.45
2023-03-12T05:17:49.606Z,9.60
2023-03-12T05:20:22.843Z,7.93
2023-03-12T05:22:54.445Z,7.28
2023-03-12T05:25:25.690Z,6.88
2023-03-12T05:28:17.466Z,8.43
2023-03-12T05:30:49.621Z,7.00
2023-03-12T05:33:21.002Z,7.10
2023-03-12T05:35:53.743Z,7.07
2023-03-12T05:38:25.455Z,6.53
2023-03-12T05:41:01.205Z,6.53
2023-03-12T05:43:37.133Z,7.65
2023-03-12T05:46:08.684Z,6.70
2023-03-12T05:48:40.610Z,6.53
2023-03-12T05:51:11.966Z,6.18
2023-03-12T05:53:46.242Z,7.15
2023-03-12T05:56:21.154Z,5.97
2023-03-12T05:58:53.559Z,6.90
2023-03-12T06:04:32.424Z,7.63
2023-03-12T06:07:04.148Z,6.63
2023-03-12T06:09:38.450Z,7.35
2023-03-12T06:12:14.823Z,6.10
2023-03-12T06:14:49.421Z,6.38
2023-03-12T06:17:24.406Z,6.13
2023-03-12T06:19:56.252Z,6.05
2023-03-12T06:22:31.672Z,7.65
2023-03-12T06:25:26.070Z,8.05
2023-03-12T06:27:57.968Z,6.32
2023-03-12T06:30:30.252Z,6.28
2023-03-12T06:33:01.768Z,5.95
2023-03-12T06:35:33.133Z,6.97
2023-03-12T06:38:04.444Z,5.75
2023-03-12T06:40:38.251Z,6.00
2023-03-12T06:43:15.159Z,6.57
2023-03-12T06:45:46.402Z,5.70
2023-03-12T06:48:17.563Z,5.82
2023-03-12T06:50:49.187Z,6.53
2023-03-12T06:53:28.131Z,4.97
2023-03-12T06:58:47.531Z,7.57
2023-03-12T07:01:19.549Z,6.20
2023-03-12T07:03:52.301Z,7.15
2023-03-12T07:06:29.000Z,5.18
2023-03-12T07:09:00.255Z,5.90
2023-03-12T07:11:34.491Z,6.47
2023-03-12T07:14:05.950Z,6.30
2023-03-12T07:16:40.672Z,6.65
2023-03-12T07:19:11.688Z,6.53
2023-03-12T07:21:44.130Z,5.70
2023-03-12T07:24:16.163Z,6.07
2023-03-12T07:26:49.538Z,6.25
2023-03-12T07:29:20.761Z,6.60
2023-03-12T07:31:52.692Z,6.82
2023-03-12T07:34:23.935Z,6.40
2023-03-12T07:36:56.358Z,5.15
2023-03-12T07:39:47.373Z,5.82
2023-03-12T07:42:39.839Z,5.70
2023-03-12T07:45:12.514Z,5.63
2023-03-12T07:47:43.621Z,5.32
2023-03-12T07:50:15.844Z,5.40
2023-03-12T07:52:48.108Z,5.20
2023-03-12T07:55:20.523Z,5.80
2023-03-12T07:58:15.092Z,5.65
2023-03-12T08:00:50.905Z,5.65
2023-03-12T08:03:24.088Z,6.03
2023-03-12T08:06:00.253Z,5.63
2023-03-12T08:08:32.716Z,5.80
2023-03-12T08:14:09.106Z,4.82
2023-03-12T08:16:42.951Z,6.53
2023-03-12T08:19:14.225Z,5.82
2023-03-12T08:22:05.179Z,5.85
2023-03-12T08:24:37.330Z,6.45
2023-03-12T08:27:08.815Z,5.10
2023-03-12T08:29:40.675Z,6.88
2023-03-12T08:32:13.048Z,5.88
2023-03-12T08:34:44.433Z,6.97
2023-03-12T08:37:15.817Z,6.70
2023-03-12T08:39:58.918Z,5.85
2023-03-12T08:42:50.299Z,5.90
2023-03-12T08:45:24.454Z,5.82
2023-03-12T08:47:56.836Z,5.43
2023-03-12T08:50:35.523Z,6.15
2023-03-12T08:53:06.708Z,5.95
2023-03-12T08:55:42.653Z,6.18
2023-03-12T08:58:13.803Z,7.45
2023-03-12T09:00:44.960Z,6.18
2023-03-12T09:03:21.953Z,6.40
2023-03-12T09:06:03.965Z,7.75
2023-03-12T09:08:55.755Z,7.50
2023-03-12T09:11:27.469Z,6.95
2023-03-12T09:14:28.408Z,6.05
2023-03-12T09:16:51.782Z,6.05
2023-03-12T09:19:23.201Z,6.35
2023-03-12T09:21:54.499Z,6.97
2023-03-12T09:24:26.912Z,7.72
2023-03-12T09:26:59.956Z,6.57
2023-03-12T09:29:35.808Z,7.78
2023-03-12T09:32:11.050Z,7.15
2023-03-12T09:34:42.195Z,6.78
2023-03-12T09:37:14.607Z,8.40
2023-03-12T09:39:45.909Z,6.63
2023-03-12T09:42:29.107Z,7.47
2023-03-12T09:45:07.109Z,8.13
2023-03-12T09:47:47.231Z,6.80
2023-03-12T09:50:42.249Z,8.15
2023-03-12T09:53:23.244Z,7.78
2023-03-12T09:55:58.477Z,12.25
2023-03-12T09:58:37.013Z,12.73
2023-03-12T10:01:35.089Z,9.55
2023-03-12T10:04:36.165Z,12.15
2023-03-12T10:07:34.967Z,65.35
2023-03-12T10:10:31.002Z,38.20
2023-03-12T10:13:44.015Z,20.92
2023-03-12T10:16:28.103Z,31.35
2023-03-12T10:19:39.303Z,26.27
2023-03-12T10:22:27.075Z,22.77
2023-03-12T10:25:33.352Z,20.05
2023-03-12T10:28:30.087Z,14.77
2023-03-12T10:31:07.115Z,90.47
2023-03-12T10:33:49.640Z,302.58
2023-03-12T10:36:27.768Z,136.63
2023-03-12T10:39:21.714Z,33.08
2023-03-12T10:42:24.328Z,11.95
2023-03-12T10:45:04.864Z,14.70
2023-03-12T10:47:42.907Z,17.95
2023-03-12T10:50:31.904Z,22.58
2023-03-12T10:53:24.028Z,16.80
2023-03-12T10:56:08.023Z,28.35
2023-03-12T10:58:43.264Z,22.50
2023-03-12T11:01:33.443Z,10.82
2023-03-12T11:04:37.554Z,13.82
2023-03-12T11:07:36.509Z,10.88
2023-03-12T11:10:20.479Z,9.48
2023-03-12T11:13:03.000Z,9.05
2023-03-12T11:15:54.941Z,10.63
2023-03-12T11:18:40.536Z,9.80
2023-03-12T11:21:22.761Z,9.77
2023-03-12T11:24:00.487Z,9.35
2023-03-12T11:26:48.853Z,15.98
2023-03-12T11:29:45.412Z,12.55
2023-03-12T11:32:21.090Z,8.95
2023-03-12T11:34:54.169Z,10.35
2023-03-12T11:37:57.268Z,32.58
2023-03-12T11:41:25.805Z,14.20
2023-03-12T11:44:03.545Z,11.20
2023-03-12T11:47:00.664Z,16.35
2023-03-12T11:50:03.158Z,12.38
2023-03-12T11:53:23.943Z,9.98
2023-03-12T11:56:13.327Z,12.02
2023-03-12T11:58:55.838Z,14.52
2023-03-12T12:01:54.225Z,12.65
2023-03-12T12:04:43.336Z,12.52
2023-03-12T12:07:17.639Z,13.88
2023-03-12T12:10:05.389Z,14.20
2023-03-12T12:12:57.434Z,19.08
2023-03-12T12:15:51.694Z,16.23
2023-03-12T12:18:59.565Z,17.85
2023-03-12T12:21:31.613Z,16.92
2023-03-12T12:24:28.563Z,15.20
2023-03-12T12:27:14.816Z,15.15
2023-03-12T12:30:09.617Z,15.50
2023-03-12T12:33:05.393Z,13.27
2023-03-12T12:35:47.630Z,16.23
2023-03-12T12:38:37.630Z,19.13
2023-03-12T12:41:17.805Z,17.27
2023-03-12T12:43:55.288Z,17.23
2023-03-12T12:46:41.161Z,17.60
2023-03-12T12:49:41.962Z,18.13
2023-03-12T12:52:17.238Z,19.05
2023-03-12T12:55:15.576Z,18.30
2023-03-12T12:58:02.357Z,15.60
2023-03-12T13:00:56.737Z,14.70
2023-03-12T13:03:29.306Z,13.63
2023-03-12T13:06:06.466Z,14.35
2023-03-12T13:08:52.060Z,13.57
2023-03-12T13:11:30.518Z,15.02
2023-03-12T13:14:07.942Z,15.20
2023-03-12T13:16:47.422Z,14.10
2023-03-12T13:19:18.458Z,15.02
2023-03-12T13:22:37.856Z,13.65
2023-03-12T13:28:37.801Z,14.35
2023-03-12T13:31:36.943Z,14.93
2023-03-12T13:34:08.440Z,13.65
2023-03-12T13:36:40.456Z,13.07
2023-03-12T13:39:17.953Z,12.70
2023-03-12T13:41:57.063Z,13.80
2023-03-12T13:44:48.286Z,13.30
2023-03-12T13:47:45.124Z,12.32
2023-03-12T13:50:19.271Z,13.23
2023-03-12T13:53:11.265Z,13.98
2023-03-12T13:55:52.738Z,11.52
2023-03-12T13:58:27.751Z,12.48
2023-03-12T14:01:09.101Z,18.90
2023-03-12T14:03:45.424Z,13.00
2023-03-12T14:06:23.452Z,12.70
2023-03-12T14:09:09.666Z,14.48
2023-03-12T14:11:56.177Z,12.55
2023-03-12T14:14:57.593Z,13.27
2023-03-12T14:17:34.885Z,13.43
2023-03-12T14:20:25.444Z,14.45
2023-03-12T14:23:09.962Z,13.07
2023-03-12T14:25:51.049Z,13.00
2023-03-12T14:28:26.310Z,13.48
2023-03-12T14:31:05.209Z,13.55
2023-03-12T14:33:59.287Z,12.65
2023-03-12T14:36:47.141Z,12.85
2023-03-12T14:39:29.991Z,11.82
2023-03-12T14:42:34.376Z,14.02
2023-03-12T14:45:17.588Z,12.95
2023-03-12T14:48:06.342Z,12.80
2023-03-12T14:50:45.098Z,11.95
2023-03-12T14:53:29.005Z,11.75
2023-03-12T14:56:04.166Z,12.48
2023-03-12T15:01:20.170Z,11.75
2023-03-12T15:04:03.559Z,10.75
2023-03-12T15:06:46.305Z,12.25
2023-03-12T15:09:31.578Z,10.60
2023-03-12T15:12:19.555Z,10.82
2023-03-12T15:14:54.270Z,10.90
2023-03-12T15:17:33.865Z,11.10
2023-03-12T15:20:17.089Z,21.95
2023-03-12T15:22:48.977Z,11.77
2023-03-12T15:25:29.066Z,10.15
2023-03-12T15:28:27.284Z,11.10
2023-03-12T15:31:12.059Z,10.30
2023-03-12T15:33:52.388Z,15.38
2023-03-12T15:36:29.772Z,12.48
2023-03-12T15:39:09.829Z,11.98
2023-03-12T15:41:52.173Z,14.25
2023-03-12T15:44:32.522Z,12.55
2023-03-12T15:47:15.193Z,10.35
2023-03-12T15:49:54.052Z,10.57
2023-03-12T15:52:28.870Z,12.15
2023-03-12T15:55:06.819Z,10.65
2023-03-12T15:57:52.010Z,11.38
2023-03-12T16:00:31.185Z,10.13
2023-03-12T16:03:09.525Z,10.85
2023-03-12T16:05:42.363Z,11.05
2023-03-12T16:08:18.499Z,10.85
2023-03-12T16:10:52.713Z,13.35
2023-03-12T16:13:44.920Z,14.00
2023-03-12T16:16:37.281Z,9.32
2023-03-12T16:19:36.821Z,10.02
2023-03-12T16:22:08.924Z,10.05
2023-03-12T16:24:40.025Z,9.77
2023-03-12T16:27:32.707Z,9.77
2023-03-12T16:30:04.475Z,9.20
2023-03-12T16:32:37.681Z,9.68
2023-03-12T16:35:30.087Z,10.55
2023-03-12T16:38:05.033Z,10.68
2023-03-12T16:40:45.064Z,10.35
2023-03-12T16:43:33.676Z,9.55
2023-03-12T16:46:05.557Z,10.50
2023-03-12T16:48:38.012Z,9.30
2023-03-12T16:51:16.915Z,9.73
2023-03-12T16:53:55.804Z,9.85
2023-03-12T16:56:38.324Z,10.10
2023-03-12T16:59:19.288Z,10.85
2023-03-12T17:01:52.024Z,11.10
2023-03-12T17:04:23.108Z,10.23
2023-03-12T17:06:54.180Z,10.65
2023-03-12T17:09:25.477Z,9.73
2023-03-12T17:11:56.878Z,9.75
2023-03-12T17:14:47.904Z,9.68
2023-03-12T17:17:19.989Z,9.82
2023-03-12T17:19:53.613Z,10.93
2023-03-12T17:22:44.901Z,9.80
2023-03-12T17:25:28.373Z,10.68
2023-03-12T17:27:59.646Z,10.73
2023-03-12T17:30:32.178Z,10.00
2023-03-12T17:33:11.562Z,10.07
2023-03-12T17:35:43.597Z,10.23
2023-03-12T17:38:20.018Z,10.05
2023-03-12T17:40:51.231Z,9.73
2023-03-12T17:43:22.222Z,10.10
2023-03-12T17:45:53.613Z,9.75
2023-03-12T17:48:24.912Z,9.10
2023-03-12T17:50:56.253Z,9.48
2023-03-12T17:53:27.884Z,10.82
2023-03-12T17:55:58.984Z,9.30
2023-03-12T17:58:30.196Z,10.05
2023-03-12T18:01:04.598Z,9.82
2023-03-12T18:03:35.993Z,8.95
2023-03-12T18:06:07.408Z,9.73
2023-03-12T18:08:38.878Z,10.60
2023-03-12T18:11:09.899Z,10.05
2023-03-12T18:13:42.353Z,9.25
2023-03-12T18:16:13.271Z,9.70
2023-03-12T18:18:45.794Z,9.73
2023-03-12T18:21:16.811Z,10.10
2023-03-12T18:23:48.011Z,10.05
2023-03-12T18:26:19.187Z,9.45
2023-03-12T18:28:50.716Z,9.98
2023-03-12T18:31:21.688Z,10.27
2023-03-12T18:33:52.538Z,10.52
2023-03-12T18:36:23.602Z,9.65
2023-03-12T18:38:54.697Z,10.02
2023-03-12T18:41:31.794Z,10.93
2023-03-12T18:44:02.932Z,9.52
2023-03-12T18:46:34.022Z,10.15
2023-03-12T18:49:14.087Z,8.30
2023-03-12T18:51:45.212Z,9.40
2023-03-12T18:54:16.507Z,9.32
2023-03-12T18:56:47.419Z,9.70
2023-03-12T18:59:18.788Z,9.38
2023-03-12T19:01:50.000Z,9.40
2023-03-12T19:04:21.816Z,8.50
2023-03-12T19:06:52.975Z,8.65
2023-03-12T19:09:23.898Z,8.80
2023-03-12T19:11:54.555Z,8.05
2023-03-12T19:14:25.325Z,8.55
2023-03-12T19:16:56.095Z,9.70
2023-03-12T19:19:27.241Z,9.02
2023-03-12T19:22:00.059Z,8.60
2023-03-12T19:24:32.134Z,9.05
2023-03-12T19:27:02.820Z,8.38
2023-03-12T19:29:33.622Z,8.85
2023-03-12T19:32:04.827Z,9.73
2023-03-12T19:34:35.912Z,9.15
2023-03-12T19:37:06.872Z,9.13
2023-03-12T19:39:38.969Z,8.63
2023-03-12T19:42:10.068Z,9.13
2023-03-12T19:44:42.911Z,8.25
2023-03-12T19:47:13.843Z,8.43
2023-03-12T19:49:46.563Z,8.15
2023-03-12T19:52:17.699Z,7.88
2023-03-12T19:55:01.412Z,8.13
2023-03-12T19:57:35.188Z,7.82
2023-03-12T20:00:12.279Z,7.97
2023-03-12T20:02:43.606Z,8.77
2023-03-12T20:05:15.106Z,8.48
2023-03-12T20:07:46.241Z,8.57
2023-03-12T20:10:17.820Z,7.85
2023-03-12T20:12:48.970Z,8.07
2023-03-12T20:15:20.044Z,8.27
2023-03-12T20:17:50.735Z,7.75
2023-03-12T20:20:21.523Z,8.38
2023-03-12T20:22:52.761Z,8.00
2023-03-12T20:25:24.736Z,8.45
2023-03-12T20:27:55.632Z,8.57
2023-03-12T20:30:26.742Z,7.53
2023-03-12T20:32:57.572Z,7.90
2023-03-12T20:35:28.618Z,8.70
2023-03-12T20:38:00.539Z,7.82
2023-03-12T20:40:32.108Z,8.15
2023-03-12T20:43:06.539Z,8.45
2023-03-12T20:45:37.473Z,7.78
2023-03-12T20:48:08.912Z,7.53
2023-03-12T20:50:41.391Z,6.78
2023-03-12T20:53:12.674Z,6.28
2023-03-12T20:55:43.716Z,7.45
2023-03-12T20:58:14.377Z,6.78
2023-03-12T21:00:45.771Z,7.03
2023-03-12T21:03:18.335Z,6.55
2023-03-12T21:06:02.597Z,6.07
2023-03-12T21:08:34.268Z,6.30
2023-03-12T21:11:08.319Z,6.45
2023-03-12T21:16:11.198Z,6.38
2023-03-12T21:18:42.522Z,5.70
2023-03-12T21:21:13.519Z,6.30
2023-03-12T21:23:44.729Z,6.22
2023-03-12T21:26:15.938Z,4.93
2023-03-12T21:28:47.518Z,5.25
2023-03-12T21:31:19.317Z,5.82
2023-03-12T21:33:50.871Z,5.47
2023-03-12T21:36:22.154Z,5.07
2023-03-12T21:38:56.036Z,5.80
2023-03-12T21:41:26.848Z,5.40
2023-03-12T21:43:57.506Z,6.00
2023-03-12T21:46:29.169Z,5.03
2023-03-12T21:49:00.341Z,5.22
2023-03-12T21:51:31.275Z,5.18
2023-03-12T21:54:01.963Z,6.07
2023-03-12T21:56:33.037Z,5.53
2023-03-12T21:59:05.540Z,5.38
2023-03-12T22:01:36.340Z,5.00
2023-03-12T22:04:07.520Z,5.82
2023-03-12T22:06:39.394Z,5.80
2023-03-12T22:09:10.228Z,4.82
2023-03-12T22:11:40.915Z,4.68
2023-03-12T22:14:12.095Z,5.55
2023-03-12T22:16:43.129Z,5.00
2023-03-12T22:19:14.626Z,5.65
2023-03-12T22:21:45.824Z,4.53
2023-03-12T22:24:16.836Z,4.65
2023-03-12T22:26:48.771Z,4.40
2023-03-12T22:29:20.018Z,5.20
2023-03-12T22:31:51.238Z,5.25
2023-03-12T22:34:22.240Z,5.05
2023-03-12T22:36:53.225Z,5.00
2023-03-12T22:39:23.984Z,4.30
2023-03-12T22:41:54.919Z,4.90
2023-03-12T22:44:25.956Z,5.25
2023-03-12T22:46:56.744Z,5.18
2023-03-12T22:49:27.740Z,4.97
2023-03-12T22:51:58.762Z,4.70
2023-03-12T22:54:29.546Z,4.78
2023-03-12T22:57:00.530Z,4.68
2023-03-12T22:59:31.450Z,4.53
2023-03-12T23:02:02.159Z,5.00
2023-03-12T23:04:53.028Z,4.88
2023-03-12T23:07:24.227Z,4.30
2023-03-12T23:09:55.283Z,4.75
2023-03-12T23:12:27.463Z,4.88
2023-03-12T23:14:58.588Z,5.22
2023-03-12T23:17:29.606Z,5.07
2023-03-12T23:20:00.755Z,5.13
2023-03-12T23:22:31.897Z,4.78
2023-03-12T23:25:03.088Z,4.28
2023-03-12T23:27:33.864Z,4.75
2023-03-12T23:30:04.954Z,5.65
2023-03-12T23:32:37.442Z,4.88
2023-03-12T23:35:10.980Z,4.53
2023-03-12T23:40:13.456Z,4.47
2023-03-12T23:42:44.917Z,6.00
2023-03-12T23:45:16.261Z,5.97
2023-03-12T23:47:47.452Z,5.03
2023-03-12T23:50:18.673Z,5.05
2023-03-12T23:52:49.827Z,4.30
2023-03-12T23:55:21.046Z,5.20
2023-03-12T23:57:51.809Z,4.75
